Time;durP1;ratioP1;P1;durP2;ratioP2;P2;SDS_P1;SDS_P2;PMS_P1;PMS_P2;Temp;Humidity;BMP_temperature;BMP_pressure;BME280_temperature;BME280_humidity;BME280_pressure;Samples;Min_cycle;Max_cycle;Signal;HPM_P1;HPM_P2
2023/04/12 00:01:23;;;;;;;4.40;1.80;;;;;;;7.81;72.31;95066.00;6096621;23;20180;-80
2023/04/12 00:03:49;;;;;;;4.17;1.63;;;;;;;7.81;72.97;95063.41;6095736;23;20161;-80
2023/04/12 00:06:16;;;;;;;4.87;1.50;;;;;;;7.86;73.29;95066.38;6095062;23;20179;-80
2023/04/12 00:08:41;;;;;;;5.07;2.33;;;;;;;7.82;74.25;95060.69;6104551;23;20143;-81
2023/04/12 00:11:07;;;;;;;6.83;2.50;;;;;;;7.71;74.84;95055.72;6123741;23;20169;-81
2023/04/12 00:13:32;;;;;;;6.43;2.33;;;;;;;7.66;74.74;95055.31;6124005;23;20177;-80
2023/04/12 00:15:58;;;;;;;5.33;1.97;;;;;;;7.55;75.92;95045.97;6123087;23;20213;-80
2023/04/12 00:18:24;;;;;;;6.47;2.60;;;;;;;7.55;76.36;95043.38;6123126;23;20149;-81
2023/04/12 00:20:50;;;;;;;6.30;2.07;;;;;;;7.64;76.57;95034.78;6125664;23;20175;-81
2023/04/12 00:23:16;;;;;;;11.50;2.33;;;;;;;7.58;77.19;95032.75;6102171;23;20209;-80
2023/04/12 00:25:41;;;;;;;5.47;2.10;;;;;;;7.58;77.29;95031.94;6149688;23;20160;-81
2023/04/12 00:28:06;;;;;;;4.20;2.03;;;;;;;7.37;78.76;95025.22;6124914;23;20168;-81
2023/04/12 00:30:32;;;;;;;2.30;1.80;;;;;;;7.43;79.40;95017.88;6102530;23;20180;-79
2023/04/12 00:32:57;;;;;;;5.50;2.10;;;;;;;7.43;79.56;95018.69;6098486;23;20247;-80
2023/04/12 00:35:23;;;;;;;4.23;1.87;;;;;;;7.23;81.48;95011.94;6122073;23;20165;-80
2023/04/12 00:37:49;;;;;;;4.50;2.00;;;;;;;7.52;80.28;95010.09;6123390;23;20156;-80
2023/04/12 00:40:14;;;;;;;7.07;2.07;;;;;;;7.48;80.46;95010.50;6097502;23;20632;-79
2023/04/12 00:42:40;;;;;;;3.33;1.70;;;;;;;7.45;81.71;95003.03;6097983;23;20188;-79
2023/04/12 00:45:06;;;;;;;5.00;2.23;;;;;;;7.39;81.55;95002.63;6097827;23;20157;-80
2023/04/12 00:47:34;;;;;;;7.00;2.00;;;;;;;7.23;83.17;94999.00;6098618;23;20172;-80
2023/04/12 00:50:00;;;;;;;4.13;2.23;;;;;;;7.34;81.87;94996.28;6120210;23;20193;-79
2023/04/12 00:52:27;;;;;;;5.53;1.80;;;;;;;7.14;83.02;94989.53;6097471;23;20163;-79
2023/04/12 00:54:52;;;;;;;4.60;2.10;;;;;;;7.24;83.47;94993.69;6096916;23;20548;-80
2023/04/12 00:57:17;;;;;;;6.73;1.93;;;;;;;7.15;84.31;94983.41;6097735;23;20600;-80
2023/04/12 00:59:43;;;;;;;6.10;2.43;;;;;;;7.08;84.72;94991.72;6097715;23;20535;-80
2023/04/12 01:02:08;;;;;;;5.43;1.90;;;;;;;6.97;86.43;94994.44;6121803;23;20516;-80
2023/04/12 01:04:36;;;;;;;5.47;2.20;;;;;;;6.93;85.99;94995.69;6097494;23;20600;-80
2023/04/12 01:08:00;;;;;;;4.43;2.00;;;;;;;6.90;87.23;94985.66;6097827;23;20220;-80
2023/04/12 01:10:31;;;;;;;5.13;2.10;;;;;;;7.05;86.91;94973.09;6033414;23;20648;-80
2023/04/12 01:13:13;;;;;;;5.63;2.17;;;;;;;7.00;86.82;94975.31;6043240;23;20200;-80
2023/04/12 01:15:50;;;;;;;6.33;2.67;;;;;;;7.05;87.48;94962.78;6042263;23;20215;-81
2023/04/12 01:18:19;;;;;;;4.83;2.07;;;;;;;6.88;87.85;94956.56;6043352;23;20192;-80
2023/04/12 01:20:53;;;;;;;5.67;2.00;;;;;;;6.85;88.97;94941.38;6043817;23;20209;-80
2023/04/12 01:23:57;;;;;;;6.93;1.70;;;;;;;6.96;88.27;94937.81;6043599;23;20172;-80
2023/04/12 01:26:43;;;;;;;3.93;1.70;;;;;;;7.05;87.83;94939.53;6043056;23;20233;-80
2023/04/12 01:29:14;;;;;;;4.20;1.73;;;;;;;6.94;88.25;94930.22;6043664;23;20536;-80
2023/04/12 01:31:44;;;;;;;5.13;1.97;;;;;;;6.77;89.18;94928.34;6066150;23;20559;-80
2023/04/12 01:34:10;;;;;;;4.20;2.20;;;;;;;6.89;89.24;94927.25;6066216;23;20189;-80
2023/04/12 01:36:36;;;;;;;3.70;1.97;;;;;;;6.97;88.97;94917.00;6045765;23;20181;-80
2023/04/12 01:39:03;;;;;;;4.67;1.80;;;;;;;6.71;89.88;94913.41;6026362;23;20209;-80
2023/04/12 01:41:30;;;;;;;3.90;2.00;;;;;;;6.79;90.22;94911.75;6091524;23;20208;-81
2023/04/12 01:43:55;;;;;;;4.10;1.90;;;;;;;6.86;89.28;94904.28;6110226;23;20181;-80
2023/04/12 01:46:22;;;;;;;6.43;1.87;;;;;;;6.82;90.05;94908.09;6110317;23;20160;-82
2023/04/12 01:48:51;;;;;;;5.97;2.30;;;;;;;6.98;89.39;94900.59;6110753;23;20610;-81
2023/04/12 01:51:49;;;;;;;4.87;1.90;;;;;;;6.99;89.92;94896.25;6110750;23;20181;-82
2023/04/12 01:54:26;;;;;;;6.20;2.03;;;;;;;6.96;90.22;94892.16;6111681;23;20249;-81
2023/04/12 01:57:02;;;;;;;5.50;2.30;;;;;;;6.96;89.84;94892.16;6111270;23;20216;-81
2023/04/12 01:59:32;;;;;;;5.33;2.10;;;;;;;6.94;90.56;94886.31;6087006;23;20149;-81
2023/04/12 02:01:58;;;;;;;4.40;2.00;;;;;;;6.86;90.58;94877.66;6135710;23;20198;-81
2023/04/12 02:04:26;;;;;;;4.83;2.10;;;;;;;6.93;91.20;94876.97;6110508;23;20551;-81
2023/04/12 02:06:51;;;;;;;7.13;2.17;;;;;;;6.76;91.22;94867.38;6109780;23;20156;-81
2023/04/12 02:09:17;;;;;;;6.60;2.47;;;;;;;6.79;91.78;94867.06;6111894;23;20157;-80
2023/04/12 02:11:46;;;;;;;7.83;2.57;;;;;;;6.87;91.82;94859.44;6111313;23;20211;-81
2023/04/12 02:14:12;;;;;;;6.47;2.80;;;;;;;6.76;92.04;94857.06;6110781;23;20173;-81
2023/04/12 02:16:38;;;;;;;3.07;2.10;;;;;;;6.70;92.18;94857.59;6110282;23;20252;-81
2023/04/12 02:19:07;;;;;;;5.93;2.70;;;;;;;6.76;92.11;94847.53;6111298;23;20223;-81
2023/04/12 02:21:38;;;;;;;6.13;2.43;;;;;;;6.73;93.39;94839.28;6110370;23;20179;-81
2023/04/12 02:24:04;;;;;;;7.27;2.53;;;;;;;6.73;93.04;94836.69;6111583;23;20153;-81
2023/04/12 02:26:29;;;;;;;4.87;2.63;;;;;;;6.75;93.52;94829.63;6134791;23;20180;-81
2023/04/12 02:28:54;;;;;;;6.17;3.07;;;;;;;6.73;93.65;94829.78;6109912;23;20255;-81
2023/04/12 02:31:20;;;;;;;3.90;2.23;;;;;;;6.74;93.23;94828.00;6111304;23;20639;-81
2023/04/12 02:33:45;;;;;;;7.90;2.30;;;;;;;6.76;93.34;94828.66;6110643;23;20188;-81
2023/04/12 02:36:11;;;;;;;4.57;2.40;;;;;;;6.76;93.72;94820.94;6110547;23;20169;-80
2023/04/12 02:38:36;;;;;;;6.07;2.77;;;;;;;6.74;93.69;94825.41;6100022;23;20157;-82
2023/04/12 02:41:01;;;;;;;3.47;2.23;;;;;;;6.68;94.20;94819.06;6097323;23;20172;-81
2023/04/12 02:43:26;;;;;;;6.63;2.50;;;;;;;6.72;94.29;94806.69;6095813;23;20172;-81
2023/04/12 02:45:52;;;;;;;8.83;3.10;;;;;;;6.58;94.54;94801.97;6095727;23;20169;-81
2023/04/12 02:48:17;;;;;;;7.17;2.83;;;;;;;6.63;95.16;94797.22;6095904;23;20160;-82
2023/04/12 02:50:42;;;;;;;6.30;2.70;;;;;;;6.70;94.61;94798.25;6095307;23;20216;-82
2023/04/12 02:53:08;;;;;;;3.80;2.50;;;;;;;6.55;95.58;94789.38;6096473;23;20181;-82
2023/04/12 02:55:33;;;;;;;5.00;2.30;;;;;;;6.66;95.64;94778.88;6095778;23;20164;-81
2023/04/12 02:57:58;;;;;;;6.47;2.63;;;;;;;6.62;95.00;94780.09;6097192;23;20159;-81
2023/04/12 03:00:23;;;;;;;5.17;2.87;;;;;;;6.63;95.55;94772.25;6096072;23;20643;-82
2023/04/12 03:02:52;;;;;;;5.37;2.67;;;;;;;6.68;95.57;94769.22;6071519;23;20160;-82
2023/04/12 03:05:17;;;;;;;4.33;2.57;;;;;;;6.55;96.28;94769.56;6094951;23;20471;-81
2023/04/12 03:07:43;;;;;;;5.10;2.47;;;;;;;6.67;95.82;94759.84;6095891;23;20215;-81
2023/04/12 03:10:10;;;;;;;4.33;2.67;;;;;;;6.65;95.68;94759.19;6095380;23;20176;-82
2023/04/12 03:12:36;;;;;;;6.40;2.93;;;;;;;6.64;95.60;94753.22;6120386;23;20157;-82
2023/04/12 03:15:02;;;;;;;6.70;2.97;;;;;;;6.71;95.67;94743.94;6095076;23;20161;-82
2023/04/12 03:17:27;;;;;;;8.30;2.90;;;;;;;6.60;97.10;94745.91;6096929;23;20160;-82
2023/04/12 03:19:52;;;;;;;3.17;2.67;;;;;;;6.55;96.48;94735.22;6096887;23;20184;-81
2023/04/12 03:22:18;;;;;;;5.67;2.80;;;;;;;6.52;96.95;94734.50;6095710;23;20164;-81
2023/04/12 03:24:44;;;;;;;4.77;2.50;;;;;;;6.51;96.92;94727.72;6071216;23;20550;-82
2023/04/12 03:27:10;;;;;;;3.70;2.30;;;;;;;6.63;97.00;94728.38;6095983;23;20168;-82
2023/04/12 03:29:35;;;;;;;4.83;2.87;;;;;;;6.61;97.58;94713.97;6095757;23;20239;-82
2023/04/12 03:32:00;;;;;;;4.13;2.70;;;;;;;6.63;97.59;94714.66;6096204;23;20164;-82
2023/04/12 03:34:30;;;;;;;4.13;2.77;;;;;;;6.65;97.01;94713.56;6120438;23;20192;-82
2023/04/12 03:36:59;;;;;;;6.30;3.03;;;;;;;6.70;96.74;94711.34;6119629;23;20141;-82
2023/04/12 03:39:25;;;;;;;4.87;2.83;;;;;;;6.67;96.68;94705.66;6096206;23;20164;-82
2023/04/12 03:41:51;;;;;;;5.10;2.97;;;;;;;6.61;97.08;94709.63;6095811;23;20558;-82
2023/04/12 03:44:17;;;;;;;5.07;2.80;;;;;;;6.66;97.58;94696.31;6096455;23;20183;-82
2023/04/12 03:46:42;;;;;;;6.67;2.80;;;;;;;6.58;97.95;94691.06;6095779;23;20231;-82
2023/04/12 03:49:07;;;;;;;7.73;3.03;;;;;;;6.61;97.77;94690.75;6094541;23;20163;-82
2023/04/12 03:51:33;;;;;;;4.73;3.10;;;;;;;6.59;97.74;94682.38;6095917;23;20172;-81
2023/04/12 03:53:58;;;;;;;5.63;3.27;;;;;;;6.69;96.71;94671.03;6095202;23;20300;-81
2023/04/12 03:56:24;;;;;;;4.47;2.87;;;;;;;6.46;98.68;94678.38;6095131;23;20202;-82
2023/04/12 03:58:49;;;;;;;4.83;2.80;;;;;;;6.65;97.77;94671.47;6095601;23;20164;-82
2023/04/12 04:01:16;;;;;;;7.17;2.90;;;;;;;6.66;98.08;94663.59;6095742;23;20182;-82
2023/04/12 04:03:43;;;;;;;6.67;3.20;;;;;;;6.65;97.97;94658.56;6095742;23;20212;-81
2023/04/12 04:06:09;;;;;;;4.23;2.87;;;;;;;6.77;97.23;94659.97;6094191;23;20196;-81
2023/04/12 04:08:35;;;;;;;5.13;2.90;;;;;;;6.75;97.44;94652.38;6071933;23;20164;-81
2023/04/12 04:11:00;;;;;;;8.17;3.00;;;;;;;6.74;96.48;94650.78;6094887;23;20235;-81
2023/04/12 04:13:25;;;;;;;6.23;2.90;;;;;;;6.72;97.43;94647.53;6095490;23;20235;-81
2023/04/12 04:15:58;;;;;;;4.43;2.80;;;;;;;6.81;97.41;94635.53;6094872;23;20163;-81
2023/04/12 04:18:23;;;;;;;3.73;2.87;;;;;;;6.83;96.42;94641.34;6120149;23;20180;-82
2023/04/12 04:20:49;;;;;;;4.70;2.70;;;;;;;6.68;97.99;94640.22;6095966;23;20176;-82
2023/04/12 04:23:16;;;;;;;5.23;3.47;;;;;;;6.72;98.12;94623.50;6095853;23;20168;-81
2023/04/12 04:25:41;;;;;;;3.53;3.00;;;;;;;6.70;98.08;94617.66;6094681;23;20157;-82
2023/04/12 04:28:07;;;;;;;7.00;3.43;;;;;;;6.72;97.74;94633.81;6095819;23;20562;-82
2023/04/12 04:30:37;;;;;;;4.40;3.17;;;;;;;6.73;98.20;94625.13;6095136;23;20184;-81
2023/04/12 04:33:03;;;;;;;11.33;4.00;;;;;;;6.69;97.91;94611.69;6096113;23;20173;-82
2023/04/12 04:35:30;;;;;;;3.80;2.90;;;;;;;6.79;97.49;94615.00;6094634;23;20164;-82
2023/04/12 04:37:55;;;;;;;5.67;2.80;;;;;;;6.76;97.29;94614.50;6096041;23;20169;-81
2023/04/12 04:40:22;;;;;;;5.23;3.30;;;;;;;6.84;97.20;94611.19;6095564;23;20519;-82
2023/04/12 04:42:53;;;;;;;6.03;3.50;;;;;;;6.74;97.50;94606.91;6095790;23;20167;-82
2023/04/12 04:45:20;;;;;;;5.07;2.87;;;;;;;6.81;97.52;94604.56;6118107;23;20165;-81
2023/04/12 04:47:47;;;;;;;4.63;2.90;;;;;;;6.73;97.70;94602.72;6097936;23;20611;-82
2023/04/12 04:50:12;;;;;;;4.47;2.97;;;;;;;6.65;98.45;94601.81;6094619;23;20259;-83
2023/04/12 04:52:38;;;;;;;4.13;2.67;;;;;;;6.69;98.60;94585.88;6095935;23;20157;-82
2023/04/12 04:55:03;;;;;;;4.70;3.10;;;;;;;6.66;98.70;94587.97;6096479;23;20168;-83
2023/04/12 04:57:29;;;;;;;6.23;3.13;;;;;;;6.65;99.16;94586.34;6120212;23;20486;-80
2023/04/12 04:59:54;;;;;;;4.70;3.00;;;;;;;6.70;98.77;94592.66;6094859;23;20176;-81
2023/04/12 05:02:20;;;;;;;6.43;2.90;;;;;;;6.71;98.35;94588.31;6095879;23;20157;-81
2023/04/12 05:04:45;;;;;;;4.30;2.97;;;;;;;6.60;99.43;94579.03;6095525;23;20630;-81
2023/04/12 05:07:13;;;;;;;9.87;3.50;;;;;;;6.50;100.00;94578.28;6102247;23;20208;-81
2023/04/12 05:09:38;;;;;;;6.60;3.40;;;;;;;6.66;99.91;94575.88;6100001;23;20153;-81
2023/04/12 05:12:03;;;;;;;3.47;2.90;;;;;;;6.67;100.00;94571.50;6099208;23;20215;-81
2023/04/12 05:14:28;;;;;;;3.63;3.03;;;;;;;6.55;100.00;94565.78;6075290;23;20208;-81
2023/04/12 05:16:54;;;;;;;5.13;3.00;;;;;;;6.70;99.68;94572.03;6099240;23;20161;-81
2023/04/12 05:19:19;;;;;;;3.57;3.07;;;;;;;6.72;99.72;94579.63;6098959;23;20179;-81
2023/04/12 05:21:45;;;;;;;4.63;3.10;;;;;;;6.70;99.81;94573.78;6099934;23;20169;-81
2023/04/12 05:24:10;;;;;;;3.53;3.07;;;;;;;6.59;100.00;94558.53;6097684;23;20148;-81
2023/04/12 05:26:36;;;;;;;4.47;2.70;;;;;;;6.69;100.00;94559.28;6097949;23;20530;-81
2023/04/12 05:29:01;;;;;;;3.23;2.83;;;;;;;6.73;99.79;94555.47;6098448;23;20167;-81
2023/04/12 05:31:27;;;;;;;5.53;2.97;;;;;;;6.67;100.00;94550.88;6122314;23;20180;-81
2023/04/12 05:33:53;;;;;;;4.70;3.63;;;;;;;6.82;99.90;94554.56;6098957;23;20173;-80
2023/04/12 05:36:18;;;;;;;3.53;2.70;;;;;;;6.62;100.00;94558.25;6122153;23;20164;-81
2023/04/12 05:38:44;;;;;;;5.00;2.90;;;;;;;6.82;100.00;94554.56;6098476;23;20634;-80
2023/04/12 05:41:09;;;;;;;5.10;3.23;;;;;;;6.70;100.00;94541.06;6098086;23;20181;-80
2023/04/12 05:43:36;;;;;;;3.13;2.83;;;;;;;6.81;99.79;94538.28;6099254;23;20442;-81
2023/04/12 05:46:02;;;;;;;4.33;3.07;;;;;;;6.70;100.00;94535.09;6121670;23;20164;-80
2023/04/12 05:48:27;;;;;;;5.13;3.60;;;;;;;6.78;100.00;94517.09;6097472;23;20153;-80
2023/04/12 05:50:53;;;;;;;4.43;2.77;;;;;;;6.90;99.86;94517.69;6098164;23;20192;-80
2023/04/12 05:53:19;;;;;;;3.07;2.50;;;;;;;6.89;99.29;94501.41;6118857;23;20251;-80
2023/04/12 05:55:45;;;;;;;4.50;3.13;;;;;;;6.90;98.89;94497.84;6079074;23;20714;-80
2023/04/12 05:58:10;;;;;;;3.43;2.90;;;;;;;6.92;99.39;94495.94;6103079;23;20212;-81
2023/04/12 06:00:36;;;;;;;6.40;3.03;;;;;;;6.98;98.96;94503.06;6107131;23;20232;-79
2023/04/12 06:03:01;;;;;;;3.87;2.87;;;;;;;6.91;99.57;94494.31;6105115;23;20148;-80
2023/04/12 06:05:26;;;;;;;3.43;3.10;;;;;;;7.07;99.21;94484.09;6105425;23;20163;-79
2023/04/12 06:07:52;;;;;;;4.00;3.13;;;;;;;6.89;99.93;94496.25;6103701;23;20219;-80
2023/04/12 06:10:17;;;;;;;4.13;2.83;;;;;;;7.07;99.58;94491.03;6106544;23;20176;-80
2023/04/12 06:12:44;;;;;;;3.30;3.00;;;;;;;7.10;99.07;94491.53;6104821;23;20212;-80
2023/04/12 06:15:10;;;;;;;3.93;3.13;;;;;;;7.00;100.00;94483.06;6104519;23;20165;-80
2023/04/12 06:17:36;;;;;;;7.47;3.37;;;;;;;7.16;99.15;94474.63;6128656;23;20168;-79
2023/04/12 06:20:04;;;;;;;7.30;3.20;;;;;;;7.20;98.98;94463.03;6106400;23;20253;-80
2023/04/12 06:22:31;;;;;;;4.73;3.33;;;;;;;7.12;99.24;94470.72;6105069;23;20160;-81
2023/04/12 06:24:57;;;;;;;4.90;3.00;;;;;;;7.28;99.00;94457.91;6104492;23;20168;-80
2023/04/12 06:27:24;;;;;;;4.63;2.83;;;;;;;7.33;98.94;94454.84;6102749;23;20157;-78
2023/04/12 06:29:49;;;;;;;4.73;3.30;;;;;;;7.25;99.45;94455.63;6098105;23;20173;-80
2023/04/12 06:32:15;;;;;;;4.50;3.13;;;;;;;7.30;99.09;94447.41;6074873;23;20159;-81
2023/04/12 06:34:40;;;;;;;4.57;3.03;;;;;;;7.33;98.54;94447.09;6096961;23;20177;-83
2023/04/12 06:37:05;;;;;;;3.93;3.00;;;;;;;7.53;98.25;94439.94;6100916;23;20157;-84
2023/04/12 06:39:31;;;;;;;6.53;3.37;;;;;;;7.26;99.47;94439.16;6079407;23;20161;-81
2023/04/12 06:41:56;;;;;;;4.27;3.00;;;;;;;7.42;99.17;94422.09;6102987;23;20184;-82
2023/04/12 06:44:22;;;;;;;3.47;3.00;;;;;;;7.48;99.21;94427.47;6103289;23;20161;-82
2023/04/12 06:46:47;;;;;;;4.83;3.57;;;;;;;7.46;99.32;94428.59;6078304;23;20168;-83
2023/04/12 06:49:12;;;;;;;4.80;4.23;;;;;;;7.56;98.24;94422.34;6103040;23;20169;-81
2023/04/12 06:51:38;;;;;;;3.43;3.13;;;;;;;7.44;98.78;94421.00;6099220;23;20189;-83
2023/04/12 06:54:03;;;;;;;3.83;2.97;;;;;;;7.53;99.57;94403.75;6099936;23;20699;-83
2023/04/12 06:56:28;;;;;;;3.20;2.90;;;;;;;7.73;98.77;94402.53;6101559;23;20168;-82
2023/04/12 06:58:55;;;;;;;4.37;3.60;;;;;;;7.81;98.49;94402.53;6100121;23;20161;-83
2023/04/12 07:01:20;;;;;;;3.80;3.27;;;;;;;7.71;98.08;94396.72;6102218;23;20176;-84
2023/04/12 07:03:45;;;;;;;4.90;3.20;;;;;;;7.71;98.57;94391.53;6101847;23;20928;-82
2023/04/12 07:06:11;;;;;;;4.00;2.80;;;;;;;7.81;98.49;94393.97;6102752;23;20165;-82
2023/04/12 07:08:36;;;;;;;3.33;3.03;;;;;;;7.51;98.42;94385.84;6105127;23;20163;-82
2023/04/12 07:11:02;;;;;;;4.33;2.90;;;;;;;7.82;98.45;94374.91;6105052;23;20555;-83
2023/04/12 07:13:28;;;;;;;5.27;3.20;;;;;;;7.86;98.15;94365.88;6128945;23;20188;-83
2023/04/12 07:15:53;;;;;;;3.53;2.83;;;;;;;7.98;97.39;94359.44;6103823;23;20156;-81
2023/04/12 07:18:19;;;;;;;6.57;2.87;;;;;;;8.03;96.40;94351.97;6104598;23;20168;-83
2023/04/12 07:20:47;;;;;;;4.67;2.47;;;;;;;8.08;96.42;94346.34;6104299;23;20216;-84
2023/04/12 07:23:12;;;;;;;3.60;2.33;;;;;;;8.07;96.46;94345.53;6128818;23;20163;-84
2023/04/12 07:25:38;;;;;;;4.90;2.77;;;;;;;8.11;96.26;94336.47;6104322;23;20165;-84
2023/04/12 07:28:04;;;;;;;5.40;2.83;;;;;;;8.19;95.26;94327.91;6103217;23;20153;-82
2023/04/12 07:30:29;;;;;;;3.27;2.80;;;;;;;8.14;95.69;94330.19;6103896;23;20200;-82
2023/04/12 07:32:55;;;;;;;3.40;2.60;;;;;;;8.16;96.45;94318.72;6103844;23;20160;-82
2023/04/12 07:35:20;;;;;;;4.43;3.10;;;;;;;8.15;97.17;94317.09;6102816;23;20160;-82
2023/04/12 07:37:46;;;;;;;4.33;2.60;;;;;;;8.36;96.11;94318.41;6103432;23;20187;-82
2023/04/12 07:40:11;;;;;;;5.83;3.53;;;;;;;8.46;95.59;94298.31;6128130;23;20180;-83
2023/04/12 07:42:36;;;;;;;4.80;3.50;;;;;;;8.43;95.84;94298.66;6103236;23;20223;-82
2023/04/12 07:45:02;;;;;;;4.40;3.57;;;;;;;8.38;96.33;94303.50;6103528;23;20164;-84
2023/04/12 07:47:28;;;;;;;3.83;3.20;;;;;;;8.19;95.78;94299.47;6104293;23;20157;-83
2023/04/12 07:49:54;;;;;;;5.00;2.80;;;;;;;8.24;95.10;94290.25;6103176;23;20270;-84
2023/04/12 07:52:19;;;;;;;4.03;2.27;;;;;;;7.99;94.79;94283.50;6104354;23;20164;-83
2023/04/12 07:54:44;;;;;;;3.70;2.23;;;;;;;8.27;95.03;94277.97;6103159;23;20180;-82
2023/04/12 07:57:10;;;;;;;4.33;2.27;;;;;;;8.04;92.79;94276.06;6103444;23;20189;-84
2023/04/12 07:59:35;;;;;;;2.77;2.27;;;;;;;8.40;92.71;94279.13;6102145;23;20184;-83
2023/04/12 08:02:01;;;;;;;4.87;2.20;;;;;;;8.26;91.50;94268.59;6104126;23;20188;-84
2023/04/12 08:04:27;;;;;;;4.07;1.97;;;;;;;8.21;92.37;94269.06;6104131;23;20663;-83
2023/04/12 08:06:53;;;;;;;5.50;2.27;;;;;;;8.32;94.31;94270.53;6102222;23;20168;-82
2023/04/12 08:09:18;;;;;;;3.17;2.00;;;;;;;8.66;92.72;94268.53;6078206;23;20160;-83
2023/04/12 08:11:43;;;;;;;4.73;2.37;;;;;;;8.57;93.68;94273.88;6103724;23;20187;-84
2023/04/12 08:14:09;;;;;;;5.10;3.40;;;;;;;8.58;93.75;94281.50;6127709;23;20571;-83
2023/04/12 08:16:34;;;;;;;20.27;10.53;;;;;;;8.65;93.94;94277.25;6102771;23;20540;-83
2023/04/12 08:19:00;;;;;;;6.13;4.10;;;;;;;8.62;95.47;94280.19;6103840;23;20156;-83
2023/04/12 08:21:26;;;;;;;6.03;2.90;;;;;;;8.64;95.14;94290.34;6103318;23;20201;-84
2023/04/12 08:23:52;;;;;;;6.00;3.03;;;;;;;8.73;95.54;94282.41;6103535;23;20168;-83
2023/04/12 08:26:17;;;;;;;4.73;2.70;;;;;;;8.95;95.27;94288.66;6103617;23;20170;-84
2023/04/12 08:28:43;;;;;;;3.50;2.70;;;;;;;8.72;94.78;94291.13;6104137;23;20164;-83
2023/04/12 08:31:08;;;;;;;5.10;2.40;;;;;;;8.71;95.38;94284.34;6104334;23;20639;-83
2023/04/12 08:33:34;;;;;;;4.70;2.57;;;;;;;9.06;94.71;94295.22;6103885;23;20180;-82
2023/04/12 08:36:00;;;;;;;4.90;3.10;;;;;;;8.90;95.98;94283.16;6102298;23;20596;-82
2023/04/12 08:38:25;;;;;;;4.83;3.00;;;;;;;9.00;96.34;94280.34;6102621;23;20152;-83
2023/04/12 08:40:51;;;;;;;8.67;3.80;;;;;;;8.87;97.29;94274.91;6102458;23;20183;-82
2023/04/12 08:43:17;;;;;;;10.63;6.00;;;;;;;9.16;95.76;94280.28;6104268;23;20152;-83
2023/04/12 08:45:43;;;;;;;8.47;3.70;;;;;;;9.32;95.50;94275.03;6128284;23;20176;-83
2023/04/12 08:48:09;;;;;;;3.67;3.17;;;;;;;9.43;94.05;94267.84;6105739;23;20165;-82
2023/04/12 08:50:34;;;;;;;3.80;3.00;;;;;;;9.54;94.32;94270.03;6103964;23;20192;-83
2023/04/12 08:52:59;;;;;;;4.63;2.80;;;;;;;9.63;94.45;94269.00;6107689;23;20161;-83
2023/04/12 08:55:25;;;;;;;4.37;2.70;;;;;;;9.47;94.31;94271.72;6078856;23;20167;-83
2023/04/12 08:57:52;;;;;;;3.90;2.30;;;;;;;9.42;95.37;94263.63;6103050;23;20164;-84
2023/04/12 09:00:19;;;;;;;5.17;2.50;;;;;;;9.49;95.31;94257.59;6103984;23;20239;-83
2023/04/12 09:02:45;;;;;;;3.83;2.60;;;;;;;9.49;95.65;94274.94;6104811;23;20156;-85
2023/04/12 09:05:13;;;;;;;2.53;2.30;;;;;;;9.85;94.52;94257.00;6105309;23;20164;-83
2023/04/12 09:07:38;;;;;;;2.87;2.17;;;;;;;9.57;95.84;94256.72;6105502;23;20153;-83
2023/04/12 09:10:04;;;;;;;4.53;2.30;;;;;;;9.50;96.99;94261.00;6104616;23;20231;-83
2023/04/12 09:12:29;;;;;;;3.67;2.47;;;;;;;9.89;95.00;94251.31;6103619;23;20697;-83
2023/04/12 09:15:09;;;;;;;6.23;2.73;;;;;;;9.65;96.01;94261.88;6103235;23;20191;-82
2023/04/12 09:17:35;;;;;;;3.03;2.17;;;;;;;9.63;96.64;94266.44;6105248;23;20228;-83
2023/04/12 09:20:03;;;;;;;3.90;3.10;;;;;;;9.78;95.93;94275.03;6105178;23;20261;-82
2023/04/12 09:22:37;;;;;;;3.80;3.07;;;;;;;9.56;95.52;94262.91;6105514;23;20248;-82
2023/04/12 09:25:03;;;;;;;3.63;1.90;;;;;;;9.59;95.75;94265.13;6129784;23;20152;-83
2023/04/12 09:27:28;;;;;;;3.77;2.40;;;;;;;9.79;95.48;94266.28;6130096;23;20171;-83
2023/04/12 09:30:09;;;;;;;4.80;1.80;;;;;;;9.74;94.96;94263.41;6106147;23;20184;-83
2023/04/12 09:32:35;;;;;;;2.77;2.00;;;;;;;9.61;95.81;94253.63;6106559;23;20199;-83
2023/04/12 09:35:01;;;;;;;2.83;2.10;;;;;;;9.72;94.87;94242.06;6105667;23;20544;-83
2023/04/12 09:37:27;;;;;;;2.00;1.77;;;;;;;9.86;94.07;94245.66;6105931;23;20157;-84
2023/04/12 09:40:07;;;;;;;3.20;2.30;;;;;;;9.56;95.05;94239.56;6130735;23;20559;-84
2023/04/12 09:42:33;;;;;;;2.60;1.80;;;;;;;9.74;95.08;94250.44;6130451;23;20172;-83
2023/04/12 09:45:01;;;;;;;4.07;2.70;;;;;;;9.89;94.48;94246.13;6130303;23;20157;-83
2023/04/12 09:47:37;;;;;;;6.07;3.00;;;;;;;9.81;94.66;94248.78;6107486;23;20163;-83
2023/04/12 09:50:04;;;;;;;3.80;1.80;;;;;;;9.79;95.28;94244.72;6105630;23;20718;-84
2023/04/12 09:52:36;;;;;;;2.70;1.90;;;;;;;10.10;95.71;94237.66;6106707;23;20507;-84
2023/04/12 09:55:02;;;;;;;2.10;1.90;;;;;;;9.94;94.03;94233.44;6130331;23;20183;-84
2023/04/12 09:57:27;;;;;;;3.83;1.77;;;;;;;10.24;95.19;94238.69;6106105;23;20224;-84
2023/04/12 09:59:55;;;;;;;3.10;1.53;;;;;;;10.41;93.82;94234.94;6116492;23;20204;-84
2023/04/12 10:02:26;;;;;;;4.33;1.90;;;;;;;10.38;93.18;94229.31;6115342;23;20156;-81
2023/04/12 10:04:51;;;;;;;2.87;1.50;;;;;;;10.41;93.29;94237.53;6101210;23;20148;-83
2023/04/12 10:07:17;;;;;;;2.63;1.70;;;;;;;11.06;92.17;94231.59;6125290;23;20161;-83
2023/04/12 10:09:43;;;;;;;1.93;1.40;;;;;;;10.66;92.65;94232.09;6124456;23;20168;-82
2023/04/12 10:12:08;;;;;;;2.00;1.30;;;;;;;10.60;91.71;94227.59;6124620;23;20141;-82
2023/04/12 10:14:34;;;;;;;1.53;1.30;;;;;;;11.04;90.67;94223.19;6123916;23;20177;-83
2023/04/12 10:17:01;;;;;;;3.93;1.40;;;;;;;10.72;92.39;94223.59;6123639;23;20204;-83
2023/04/12 10:19:28;;;;;;;4.20;1.33;;;;;;;11.26;90.99;94226.63;6122624;23;20156;-82
2023/04/12 10:21:56;;;;;;;3.23;1.53;;;;;;;11.45;89.83;94209.63;6132895;23;20149;-83
2023/04/12 10:24:26;;;;;;;1.70;1.10;;;;;;;11.16;89.73;94213.13;6096367;23;20159;-82
2023/04/12 10:26:54;;;;;;;2.13;1.23;;;;;;;11.21;88.66;94215.97;6095534;23;20559;-83
2023/04/12 10:29:25;;;;;;;1.67;1.27;;;;;;;11.14;88.69;94209.09;6096039;23;20212;-82
2023/04/12 10:31:52;;;;;;;2.23;1.23;;;;;;;11.28;90.07;94203.84;6120124;23;20172;-83
2023/04/12 10:34:17;;;;;;;1.33;1.00;;;;;;;11.24;88.79;94207.00;6095185;23;20231;-82
2023/04/12 10:36:59;;;;;;;5.47;1.00;;;;;;;11.17;89.20;94206.13;6094910;23;20251;-82
2023/04/12 10:39:41;;;;;;;2.20;1.40;;;;;;;11.40;89.08;94206.78;6119187;23;20215;-81
2023/04/12 10:42:29;;;;;;;1.30;0.93;;;;;;;11.96;87.51;94196.50;6095238;23;20272;-82
2023/04/12 10:45:22;;;;;;;1.63;1.03;;;;;;;11.78;88.71;94198.72;6070836;23;20216;-82
2023/04/12 10:47:47;;;;;;;2.63;1.30;;;;;;;12.06;87.22;94194.34;6097126;23;20181;-82
2023/04/12 10:50:23;;;;;;;2.10;0.90;;;;;;;11.80;85.63;94194.16;6097496;23;20239;-82
2023/04/12 10:53:20;;;;;;;4.63;1.23;;;;;;;11.68;85.00;94191.25;6120588;23;20403;-83
2023/04/12 10:55:46;;;;;;;2.27;1.10;;;;;;;12.01;85.17;94188.09;6121723;23;20160;-83
2023/04/12 10:58:49;;;;;;;2.27;0.87;;;;;;;11.98;83.62;94180.69;6096480;23;20799;-82
2023/04/12 11:01:17;;;;;;;2.07;1.10;;;;;;;11.89;84.34;94185.22;6121844;23;20181;-83
2023/04/12 11:04:04;;;;;;;1.53;1.03;;;;;;;11.75;84.72;94178.25;6101115;23;20203;-84
2023/04/12 11:06:51;;;;;;;2.87;0.93;;;;;;;11.91;85.81;94178.84;6128204;23;20498;-83
2023/04/12 11:09:22;;;;;;;2.10;0.87;;;;;;;11.87;84.92;94174.22;6129845;23;20484;-84
2023/04/12 11:11:48;;;;;;;1.93;1.10;;;;;;;12.14;84.42;94181.22;6103109;23;20148;-83
2023/04/12 11:14:17;;;;;;;1.70;1.10;;;;;;;11.83;83.13;94183.38;6102497;23;20184;-82
2023/04/12 11:17:11;;;;;;;1.23;1.00;;;;;;;12.13;81.61;94169.19;6101307;23;20674;-83
2023/04/12 11:19:52;;;;;;;1.17;0.90;;;;;;;12.67;81.08;94159.88;6101515;23;20167;-83
2023/04/12 11:22:19;;;;;;;2.13;0.87;;;;;;;12.37;80.35;94161.94;6097436;23;20148;-83
2023/04/12 11:24:47;;;;;;;1.20;1.10;;;;;;;12.19;80.00;94152.81;6096729;23;20184;-82
2023/04/12 11:27:13;;;;;;;3.93;1.10;;;;;;;12.66;78.57;94158.25;6122245;23;20160;-82
2023/04/12 11:29:38;;;;;;;1.13;0.73;;;;;;;12.13;79.49;94152.78;6098472;23;20220;-82
2023/04/12 11:32:06;;;;;;;1.73;1.00;;;;;;;12.53;78.01;94163.41;6097033;23;20184;-82
2023/04/12 11:34:35;;;;;;;2.90;1.10;;;;;;;12.47;77.35;94162.38;6120389;23;20176;-82
2023/04/12 11:37:06;;;;;;;2.03;1.00;;;;;;;12.40;77.00;94170.16;6096568;23;20215;-82
2023/04/12 11:39:32;;;;;;;3.23;1.80;;;;;;;12.57;76.71;94169.84;6095848;23;20157;-83
2023/04/12 11:41:57;;;;;;;1.87;0.97;;;;;;;12.58;76.79;94156.63;6095106;23;20482;-81